createdAt,value
2022-10-03T00:02:07.457Z,12.76
2022-10-03T00:05:02.671Z,12.74
2022-10-03T00:07:54.482Z,12.74
2022-10-03T00:10:39.671Z,12.76
2022-10-03T00:13:22.488Z,12.78
2022-10-03T00:16:08.996Z,12.79
2022-10-03T00:18:57.841Z,12.76
2022-10-03T00:21:53.640Z,12.79
2022-10-03T00:24:43.617Z,12.79
2022-10-03T00:27:28.752Z,12.82
2022-10-03T00:30:15.016Z,12.81
2022-10-03T00:33:14.117Z,12.78
2022-10-03T00:36:03.115Z,12.75
2022-10-03T00:39:08.902Z,12.76
2022-10-03T00:42:08.602Z,12.76
2022-10-03T00:45:08.784Z,12.78
2022-10-03T00:48:10.026Z,12.77
2022-10-03T00:51:06.476Z,12.72
2022-10-03T00:54:03.638Z,12.72
2022-10-03T00:57:05.124Z,12.72
2022-10-03T01:00:08.681Z,12.77
2022-10-03T01:02:56.562Z,12.74
2022-10-03T01:05:40.716Z,12.71
2022-10-03T01:08:40.501Z,12.72
2022-10-03T01:11:26.932Z,12.68
2022-10-03T01:14:11.342Z,12.66
2022-10-03T01:17:01.855Z,12.66
2022-10-03T01:20:06.437Z,12.66
2022-10-03T01:23:10.675Z,12.62
2022-10-03T01:25:58.257Z,12.59
2022-10-03T01:29:07.725Z,12.56
2022-10-03T01:32:03.877Z,12.57
2022-10-03T01:34:44.441Z,12.59
2022-10-03T01:37:45.121Z,12.61
2022-10-03T01:40:45.338Z,12.57
2022-10-03T01:43:26.650Z,12.51
2022-10-03T01:46:10.867Z,12.51
2022-10-03T01:49:03.343Z,12.51
2022-10-03T01:51:53.203Z,12.53
2022-10-03T01:54:42.179Z,12.60
2022-10-03T01:57:37.430Z,12.64
2022-10-03T02:00:15.127Z,12.69
2022-10-03T02:03:02.513Z,12.70
2022-10-03T02:05:51.899Z,12.68
2022-10-03T02:08:48.927Z,12.67
2022-10-03T02:11:58.159Z,12.63
2022-10-03T02:14:43.137Z,12.64
2022-10-03T02:17:30.973Z,12.62
2022-10-03T02:20:30.856Z,12.65
2022-10-03T02:23:16.640Z,12.67
2022-10-03T02:26:06.286Z,12.66
2022-10-03T02:29:07.814Z,12.84
2022-10-03T02:32:29.701Z,12.73
2022-10-03T02:35:26.901Z,12.89
2022-10-03T02:38:31.970Z,12.87
2022-10-03T02:41:34.719Z,12.81
2022-10-03T02:44:40.936Z,12.75
2022-10-03T02:47:48.621Z,12.74
2022-10-03T02:51:06.819Z,12.71
2022-10-03T02:54:16.836Z,12.74
2022-10-03T02:57:28.762Z,12.81
2022-10-03T03:00:21.260Z,12.79
2022-10-03T03:03:31.608Z,12.79
2022-10-03T03:06:44.767Z,12.84
2022-10-03T03:10:06.319Z,12.84
2022-10-03T03:13:04.767Z,12.84
2022-10-03T03:16:15.044Z,12.83
2022-10-03T03:19:06.633Z,12.81
2022-10-03T03:21:51.339Z,12.79
2022-10-03T03:24:38.555Z,12.80
2022-10-03T03:27:32.091Z,12.84
2022-10-03T03:30:14.152Z,12.88
2022-10-03T03:33:05.603Z,12.88
2022-10-03T03:35:52.871Z,12.87
2022-10-03T03:38:34.222Z,12.85
2022-10-03T03:41:38.743Z,12.88
2022-10-03T03:44:33.554Z,12.88
2022-10-03T03:47:23.740Z,12.85
2022-10-03T03:50:27.943Z,12.86
2022-10-03T03:53:21.203Z,12.84
2022-10-03T03:56:20.696Z,12.80
2022-10-03T03:59:06.458Z,12.77
2022-10-03T04:01:58.458Z,12.78
2022-10-03T04:04:47.833Z,12.79
2022-10-03T04:07:45.088Z,12.82
2022-10-03T04:10:32.928Z,12.82
2022-10-03T04:13:32.369Z,12.83
2022-10-03T04:16:48.658Z,12.86
2022-10-03T04:19:44.712Z,12.89
2022-10-03T04:22:42.976Z,12.90
2022-10-03T04:25:32.410Z,12.88
2022-10-03T04:28:44.826Z,12.86
2022-10-03T04:31:43.231Z,12.84
2022-10-03T04:34:36.541Z,12.85
2022-10-03T04:37:29.045Z,12.85
2022-10-03T04:40:19.764Z,12.85
2022-10-03T04:43:07.088Z,12.84
2022-10-03T04:45:56.263Z,12.83
2022-10-03T04:48:41.930Z,12.82
2022-10-03T04:51:26.515Z,12.83
2022-10-03T04:54:05.705Z,12.82
2022-10-03T04:56:52.153Z,12.70
2022-10-03T04:59:52.997Z,12.62
2022-10-03T05:02:48.203Z,12.59
2022-10-03T05:05:47.125Z,12.61
2022-10-03T05:08:40.673Z,12.63
2022-10-03T05:11:26.440Z,12.66
2022-10-03T05:14:11.658Z,12.70
2022-10-03T05:16:52.438Z,12.72
2022-10-03T05:19:55.391Z,12.74
2022-10-03T05:23:00.934Z,12.76
2022-10-03T05:25:46.293Z,12.74
2022-10-03T05:28:36.506Z,12.73
2022-10-03T05:31:31.213Z,12.73
2022-10-03T05:34:13.687Z,12.75
2022-10-03T05:37:03.571Z,12.78
2022-10-03T05:39:45.258Z,12.80
2022-10-03T05:42:36.697Z,12.85
2022-10-03T05:45:26.602Z,12.90
2022-10-03T05:48:26.003Z,12.92
2022-10-03T05:51:39.987Z,12.93
2022-10-03T05:54:49.326Z,12.95
2022-10-03T05:57:49.652Z,12.98
2022-10-03T06:00:36.194Z,12.99
2022-10-03T06:03:44.046Z,13.00
2022-10-03T06:06:28.593Z,13.01
2022-10-03T06:09:34.048Z,13.00
2022-10-03T06:12:14.593Z,13.02
2022-10-03T06:15:19.712Z,13.06
2022-10-03T06:18:24.267Z,13.12
2022-10-03T06:21:27.013Z,13.19
2022-10-03T06:24:50.082Z,13.20
2022-10-03T06:28:08.151Z,13.21
2022-10-03T06:31:04.365Z,13.23
2022-10-03T06:34:12.967Z,13.24
2022-10-03T06:37:15.062Z,13.26
2022-10-03T06:40:20.909Z,13.28
2022-10-03T06:43:19.574Z,13.25
2022-10-03T06:46:21.863Z,13.23
2022-10-03T06:49:23.375Z,13.24
2022-10-03T06:52:28.650Z,13.24
2022-10-03T06:55:50.556Z,13.21
2022-10-03T06:59:05.823Z,13.17
2022-10-03T07:02:10.086Z,13.14
2022-10-03T07:05:03.321Z,13.14
2022-10-03T07:08:12.175Z,13.13
2022-10-03T07:11:00.442Z,13.14
2022-10-03T07:14:00.994Z,13.14
2022-10-03T07:16:55.166Z,13.13
2022-10-03T07:20:01.550Z,13.20
2022-10-03T07:23:27.479Z,13.29
2022-10-03T07:26:32.444Z,13.33
2022-10-03T07:29:29.445Z,13.34
2022-10-03T07:32:22.453Z,13.37
2022-10-03T07:35:50.448Z,13.42
2022-10-03T07:39:01.701Z,13.47
2022-10-03T07:42:07.849Z,13.54
2022-10-03T07:45:16.369Z,13.62
2022-10-03T07:48:18.740Z,13.73
2022-10-03T07:51:05.939Z,13.76
2022-10-03T07:54:12.843Z,13.82
2022-10-03T07:57:13.704Z,13.89
2022-10-03T08:00:22.963Z,13.91
2022-10-03T08:03:45.455Z,13.90
2022-10-03T08:06:26.790Z,13.92
2022-10-03T08:09:17.520Z,13.95
2022-10-03T08:12:33.397Z,14.02
2022-10-03T08:15:21.928Z,14.04
2022-10-03T08:18:31.973Z,14.04
2022-10-03T08:21:12.557Z,14.06
2022-10-03T08:24:25.405Z,14.05
2022-10-03T08:27:27.891Z,14.02
2022-10-03T08:30:31.150Z,14.01
2022-10-03T08:33:28.505Z,14.03
2022-10-03T08:36:51.538Z,14.05
2022-10-03T08:39:49.172Z,14.10
2022-10-03T08:43:06.276Z,14.10
2022-10-03T08:46:07.177Z,14.07
2022-10-03T08:48:59.648Z,13.97
2022-10-03T08:52:08.466Z,14.00
2022-10-03T08:55:23.184Z,14.01
2022-10-03T08:58:31.771Z,14.03
2022-10-03T09:01:22.711Z,14.05
2022-10-03T09:04:38.234Z,14.06
2022-10-03T09:07:46.643Z,14.05
2022-10-03T09:10:38.071Z,14.01
2022-10-03T09:13:29.935Z,14.01
2022-10-03T09:16:48.036Z,14.02
2022-10-03T09:19:31.411Z,14.01
2022-10-03T09:22:28.213Z,13.97
2022-10-03T09:25:23.356Z,13.96
2022-10-03T09:28:30.662Z,13.95
2022-10-03T09:31:16.674Z,13.95
2022-10-03T09:34:10.173Z,13.91
2022-10-03T09:37:22.922Z,13.87
2022-10-03T09:40:42.471Z,13.88
2022-10-03T09:43:55.053Z,13.87
2022-10-03T09:47:12.816Z,13.85
2022-10-03T09:50:21.854Z,13.85
2022-10-03T09:53:24.857Z,13.88
2022-10-03T09:56:25.626Z,13.92
2022-10-03T09:59:22.557Z,13.96
2022-10-03T10:02:16.917Z,14.00
2022-10-03T10:05:12.858Z,14.04
2022-10-03T10:08:20.761Z,14.08
2022-10-03T10:11:10.699Z,14.15
2022-10-03T10:14:23.088Z,14.20
2022-10-03T10:17:17.293Z,14.23
2022-10-03T10:19:59.751Z,14.24
2022-10-03T10:23:05.569Z,14.24
2022-10-03T10:26:06.325Z,14.24
2022-10-03T10:29:10.099Z,14.26
2022-10-03T10:32:21.545Z,14.25
2022-10-03T10:35:29.454Z,14.23
2022-10-03T10:38:37.881Z,14.18
2022-10-03T10:41:59.031Z,14.14
2022-10-03T10:45:15.633Z,14.09
2022-10-03T10:48:21.889Z,14.08
2022-10-03T10:51:30.170Z,14.06
2022-10-03T10:54:34.907Z,14.05
2022-10-03T10:57:41.849Z,14.02
2022-10-03T11:00:36.135Z,14.03
2022-10-03T11:03:46.879Z,14.06
2022-10-03T11:06:55.876Z,14.10
2022-10-03T11:10:28.775Z,14.14
2022-10-03T11:13:36.489Z,14.27
2022-10-03T11:16:59.603Z,14.40
2022-10-03T11:20:18.310Z,14.61
2022-10-03T11:23:27.457Z,14.81
2022-10-03T11:26:32.128Z,14.89
2022-10-03T11:29:38.728Z,14.97
2022-10-03T11:32:47.372Z,15.07
2022-10-03T11:35:54.711Z,15.25
2022-10-03T11:38:31.716Z,15.56
2022-10-03T12:51:58.017Z,20.98
2022-10-03T12:54:49.884Z,22.66
2022-10-03T12:57:49.707Z,22.07
2022-10-03T13:00:27.360Z,21.44
2022-10-03T13:03:19.368Z,20.83
2022-10-03T13:06:19.431Z,20.17
2022-10-03T13:09:13.097Z,19.53
2022-10-03T13:11:57.285Z,19.19
2022-10-03T13:15:06.406Z,18.92
2022-10-03T13:17:49.871Z,18.58
2022-10-03T13:20:30.758Z,18.35
2022-10-03T13:23:12.316Z,18.16
2022-10-03T13:25:53.667Z,17.90
2022-10-03T13:28:37.373Z,17.69
2022-10-03T13:31:22.699Z,17.49
2022-10-03T13:34:00.340Z,17.35
2022-10-03T13:36:40.691Z,17.23
2022-10-03T13:39:24.293Z,17.22
2022-10-03T13:42:17.133Z,17.12
2022-10-03T13:44:56.479Z,16.98
2022-10-03T13:47:47.482Z,16.91
2022-10-03T13:50:25.175Z,16.92
2022-10-03T13:53:02.609Z,16.96
2022-10-03T13:55:46.699Z,16.99
2022-10-03T13:58:36.865Z,17.04
2022-10-03T14:01:39.269Z,17.01
2022-10-03T14:04:42.832Z,17.00
2022-10-03T14:07:34.667Z,17.03
2022-10-03T14:10:26.884Z,17.02
2022-10-03T14:13:16.694Z,16.99
2022-10-03T14:16:00.445Z,16.96
2022-10-03T14:18:53.170Z,16.92
2022-10-03T14:21:48.697Z,16.88
2022-10-03T14:24:37.465Z,16.83
2022-10-03T14:27:28.787Z,16.82
2022-10-03T14:30:10.478Z,16.76
2022-10-03T14:32:56.614Z,16.68
2022-10-03T14:35:40.984Z,16.62
2022-10-03T14:38:46.318Z,16.59
2022-10-03T14:41:26.320Z,16.53
2022-10-03T14:44:01.623Z,16.51
2022-10-03T14:46:41.110Z,16.44
2022-10-03T14:49:51.080Z,16.36
2022-10-03T14:52:27.301Z,16.26
2022-10-03T14:55:04.598Z,16.18
2022-10-03T14:58:05.616Z,16.15
2022-10-03T15:00:45.629Z,16.11
2022-10-03T15:03:38.921Z,16.05
2022-10-03T15:06:54.166Z,15.98
2022-10-03T15:09:36.440Z,15.96
2022-10-03T15:12:13.883Z,15.94
2022-10-03T15:14:58.707Z,15.88
2022-10-03T15:17:54.529Z,15.78
2022-10-03T15:20:31.745Z,15.72
2022-10-03T15:23:07.836Z,15.68
2022-10-03T15:25:43.309Z,15.61
2022-10-03T15:28:21.353Z,15.56
2022-10-03T15:30:58.385Z,15.51
2022-10-03T15:33:35.606Z,15.47
2022-10-03T15:36:16.345Z,15.42
2022-10-03T15:38:54.508Z,15.38
2022-10-03T15:41:36.314Z,15.32
2022-10-03T15:44:20.058Z,15.26
2022-10-03T15:47:01.969Z,15.22
2022-10-03T15:49:40.486Z,15.18
2022-10-03T15:52:19.986Z,15.15
2022-10-03T15:55:10.993Z,15.10
2022-10-03T15:57:49.195Z,15.05
2022-10-03T16:00:27.927Z,14.99
2022-10-03T16:03:14.244Z,14.93
2022-10-03T16:06:02.653Z,14.88
2022-10-03T16:08:44.689Z,14.85
2022-10-03T16:11:23.649Z,14.80
2022-10-03T16:14:12.699Z,14.75
2022-10-03T16:16:52.577Z,14.68
2022-10-03T16:19:31.640Z,14.63
2022-10-03T16:22:27.163Z,14.59
2022-10-03T16:25:13.074Z,14.56
2022-10-03T16:27:56.810Z,14.51
2022-10-03T16:31:00.833Z,14.46
2022-10-03T16:33:37.875Z,14.42
2022-10-03T16:36:18.745Z,14.36
2022-10-03T16:38:59.640Z,14.33
2022-10-03T16:41:35.344Z,14.28
2022-10-03T16:44:20.867Z,14.25
2022-10-03T16:46:56.224Z,14.22
2022-10-03T16:50:02.643Z,14.17
2022-10-03T16:52:38.601Z,14.12
2022-10-03T16:55:20.090Z,14.09
2022-10-03T16:57:58.454Z,14.03
2022-10-03T17:00:40.539Z,13.96
2022-10-03T17:03:21.872Z,13.90
2022-10-03T17:06:03.073Z,13.86
2022-10-03T17:08:47.872Z,13.81
2022-10-03T17:11:26.554Z,13.77
2022-10-03T17:14:03.821Z,13.75
2022-10-03T17:16:45.828Z,13.74
2022-10-03T17:19:31.569Z,13.72
2022-10-03T17:22:18.867Z,13.71
2022-10-03T17:25:01.323Z,13.70
2022-10-03T17:27:39.044Z,13.68
2022-10-03T17:30:23.396Z,13.69
2022-10-03T17:33:04.543Z,13.64
2022-10-03T17:35:50.535Z,13.62
2022-10-03T17:38:49.310Z,13.59
2022-10-03T17:41:41.518Z,13.54
2022-10-03T17:44:31.790Z,13.48
2022-10-03T17:47:13.182Z,13.46
2022-10-03T17:49:58.130Z,13.46
2022-10-03T17:52:35.198Z,13.45
2022-10-03T17:55:19.045Z,13.44
2022-10-03T17:57:55.318Z,13.44
2022-10-03T18:00:34.063Z,13.43
2022-10-03T18:03:16.059Z,13.42
2022-10-03T18:05:48.757Z,13.39
2022-10-03T18:08:29.601Z,13.33
2022-10-03T18:11:04.968Z,13.29
2022-10-03T18:13:44.304Z,13.27
2022-10-03T18:16:33.774Z,13.27
2022-10-03T18:19:33.887Z,13.26
2022-10-03T18:22:17.362Z,13.25
2022-10-03T18:25:01.785Z,13.25
2022-10-03T18:28:05.714Z,13.27
2022-10-03T18:30:49.805Z,13.27
2022-10-03T18:33:31.907Z,13.26
2022-10-03T18:36:27.704Z,13.23
2022-10-03T18:39:08.343Z,13.19
2022-10-03T18:41:49.977Z,13.16
2022-10-03T18:44:25.634Z,13.14
2022-10-03T18:47:19.133Z,13.11
2022-10-03T18:50:03.731Z,13.09
2022-10-03T18:52:45.470Z,13.07
2022-10-03T18:55:26.510Z,12.97
2022-10-03T18:58:07.264Z,12.77
2022-10-03T19:00:49.642Z,12.73
2022-10-03T19:03:30.411Z,12.70
2022-10-03T19:06:18.584Z,12.67
2022-10-03T19:08:56.616Z,12.64
2022-10-03T19:11:33.868Z,12.63
2022-10-03T19:14:13.546Z,12.62
2022-10-03T19:17:08.425Z,12.60
2022-10-03T19:19:55.250Z,12.58
2022-10-03T19:22:39.135Z,12.55
2022-10-03T19:25:27.239Z,12.53
2022-10-03T19:28:03.680Z,12.52
2022-10-03T19:30:39.031Z,12.54
2022-10-03T19:33:22.402Z,12.55
2022-10-03T19:36:02.232Z,12.56
2022-10-03T19:38:39.772Z,12.59
2022-10-03T19:41:27.756Z,12.60
2022-10-03T19:44:07.350Z,12.57
2022-10-03T19:47:02.703Z,12.59
2022-10-03T19:49:46.207Z,12.62
2022-10-03T19:52:29.433Z,12.61
2022-10-03T19:55:14.334Z,12.60
2022-10-03T19:57:52.930Z,12.58
2022-10-03T20:00:27.139Z,12.55
2022-10-03T20:03:13.903Z,12.51
2022-10-03T20:05:59.062Z,12.49
2022-10-03T20:08:45.992Z,12.42
2022-10-03T20:11:33.464Z,12.39
2022-10-03T20:14:07.757Z,12.37
2022-10-03T20:16:49.459Z,12.40
2022-10-03T20:19:27.488Z,12.44
2022-10-03T20:22:05.162Z,12.49
2022-10-03T20:24:50.280Z,12.51
2022-10-03T20:27:37.526Z,12.50
2022-10-03T20:30:27.144Z,12.49
2022-10-03T20:33:01.983Z,12.52
2022-10-03T20:35:49.988Z,12.51
2022-10-03T20:38:32.806Z,12.51
2022-10-03T20:41:11.407Z,12.51
2022-10-03T20:43:48.715Z,12.51
2022-10-03T20:46:29.562Z,12.53
2022-10-03T20:49:17.862Z,12.53
2022-10-03T20:52:02.595Z,12.54
2022-10-03T20:54:49.956Z,12.55
2022-10-03T20:57:27.337Z,12.55
2022-10-03T21:00:09.877Z,12.55
2022-10-03T21:02:50.820Z,12.59
2022-10-03T21:05:29.334Z,12.61
2022-10-03T21:08:05.365Z,12.62
2022-10-03T21:10:42.097Z,12.64
2022-10-03T21:13:21.965Z,12.65
2022-10-03T21:15:57.671Z,12.63
2022-10-03T21:18:35.923Z,12.63
2022-10-03T21:21:20.981Z,12.64
2022-10-03T21:24:04.824Z,12.65
2022-10-03T21:26:45.132Z,12.64
2022-10-03T21:29:34.081Z,12.64
2022-10-03T21:32:25.716Z,12.63
2022-10-03T21:35:10.905Z,12.62
2022-10-03T21:37:52.786Z,12.63
2022-10-03T21:40:44.193Z,12.63
2022-10-03T21:43:29.511Z,12.64
2022-10-03T21:46:12.147Z,12.63
2022-10-03T21:48:59.799Z,12.61
2022-10-03T21:51:42.735Z,12.54
2022-10-03T21:54:32.915Z,12.52
2022-10-03T21:57:18.487Z,12.51
2022-10-03T22:00:12.235Z,12.50
2022-10-03T22:02:59.679Z,12.53
2022-10-03T22:05:42.211Z,12.54
2022-10-03T22:08:31.127Z,12.51
2022-10-03T22:11:20.236Z,12.51
2022-10-03T22:14:01.428Z,12.51
2022-10-03T22:16:40.631Z,12.50
2022-10-03T22:19:26.341Z,12.49
2022-10-03T22:22:15.667Z,12.45
2022-10-03T22:25:00.769Z,12.45
2022-10-03T22:27:40.519Z,12.44
2022-10-03T22:30:16.896Z,12.43
2022-10-03T22:33:12.916Z,12.43
2022-10-03T22:35:54.105Z,12.42
2022-10-03T22:38:28.903Z,12.39
2022-10-03T22:41:06.602Z,12.38
2022-10-03T22:43:42.355Z,12.35
2022-10-03T22:46:26.315Z,12.35
2022-10-03T22:49:06.192Z,12.34
2022-10-03T22:51:41.592Z,12.34
2022-10-03T22:54:17.982Z,12.33
2022-10-03T22:56:56.895Z,12.34
2022-10-03T22:59:35.608Z,12.33
2022-10-03T23:02:11.384Z,12.34
2022-10-03T23:04:50.099Z,12.34
2022-10-03T23:07:53.586Z,12.34
2022-10-03T23:10:44.941Z,12.37
2022-10-03T23:13:30.054Z,12.35
2022-10-03T23:16:14.433Z,12.35
2022-10-03T23:19:05.274Z,12.37
2022-10-03T23:21:48.360Z,12.39
2022-10-03T23:24:29.056Z,12.42
2022-10-03T23:27:45.218Z,12.44
2022-10-03T23:30:54.628Z,12.46
2022-10-03T23:33:54.920Z,12.50
2022-10-03T23:36:31.717Z,12.53
2022-10-03T23:39:05.629Z,12.57
2022-10-03T23:42:01.340Z,12.62
2022-10-03T23:44:43.630Z,12.65
2022-10-03T23:47:46.305Z,12.69
2022-10-03T23:50:24.945Z,12.72
2022-10-03T23:53:00.815Z,12.75
2022-10-03T23:55:40.765Z,12.80
2022-10-03T23:58:32.034Z,12.84
